Last 7 Days

Abernathy 3 (AB3)

Hourly Data | America/Los_Angeles
as of 2/19/19 1:28 PM PST
Date Time Temp (°F) RH (%) Dew Pt (°F) Wind Spd (mph) Wind Dir (°) Wind Gust (mph) Latest Rain (In) Daily Rain (In) Daily Min Temp (°F) Daily Max Temp (°F) Day
2/19/19 1300 55.0 39 30.4 6.2 SSE | 163 12.1 0.00 0.00 34.8 55.6 2/19/19
2/19/19 1200 54.1 35 27.0 4.2 ESE | 104 8.4 0.00 0.00 34.8 55.1 2/19/19
2/19/19 1100 52.6 35 25.8 3.7 NNW | 343 10.8 0.00 0.00 34.8 54.2 2/19/19
2/19/19 1000 49.6 40 26.4 8.6 NNW | 337 14.2 0.00 0.00 34.8 51.1 2/19/19
2/19/19 0900 45.6 46 25.8 8.1 NNW | 329 15.2 0.00 0.00 34.8 48.1 2/19/19
2/19/19 0800 40.3 54 25.0 5.5 NNW | 331 8.4 0.00 0.00 34.8 42.6 2/19/19
2/19/19 0700 40.1 51 23.3 5.5 NW | 310 9.8 0.00 0.00 34.8 42.4 2/19/19
2/19/19 0600 40.4 54 24.9 5.6 NNW | 329 12.8 0.00 0.00 34.8 42.4 2/19/19
2/19/19 0500 38.8 58 25.4 5.4 NW | 322 11.8 0.00 0.00 34.8 42.4 2/19/19
2/19/19 0400 39.3 55 24.4 3.1 W | 270 6.4 0.00 0.00 35.0 42.4 2/19/19
2/19/19 0300 38.2 60 25.3 2.3 NNW | 338 6.4 0.00 0.00 35.2 41.8 2/19/19
2/19/19 0200 36.9 65 26.2 1.0 NW | 312 4.1 0.00 0.00 35.3 40.3 2/19/19
2/19/19 0100 36.8 66 26.6 2.3 SW | 231 6.1 0.00 0.00 35.3 40.3 2/19/19
2/19/19 0000 36.5 69 27.2 2.4 WNW | 288 5.4 0.00 0.00 33.6 55.5 2/18/19
2/18/19 2300 37.4 67 27.6 3.8 NW | 316 5.1 0.00 0.00 33.6 55.5 2/18/19
2/18/19 2200 37.9 68 28.4 4.0 NW | 320 6.4 0.00 0.00 33.6 55.5 2/18/19
2/18/19 2100 38.9 67 28.8 3.1 NNW | 340 6.1 0.00 0.00 33.6 55.5 2/18/19
2/18/19 2000 41.5 56 27.0 2.5 NW | 305 5.4 0.00 0.00 33.6 55.5 2/18/19
2/18/19 1900 45.6 48 26.8 2.1 NW | 311 5.4 0.00 0.00 33.6 55.5 2/18/19
2/18/19 1800 51.1 39 26.6 3.7 NNW | 333 10.1 0.00 0.00 33.6 55.5 2/18/19
2/18/19 1700 53.8 32 24.6 9.6 NNW | 347 18.2 0.00 0.00 33.6 55.5 2/18/19
2/18/19 1600 54.6 32 25.5 11.2 NNW | 332 19.5 0.00 0.00 33.6 55.5 2/18/19
2/18/19 1500 55.0 33 26.1 11.4 NW | 322 18.8 0.00 0.00 33.6 55.5 2/18/19
2/18/19 1400 55.1 31 24.7 10.0 NNW | 338 18.8 0.00 0.00 33.6 55.4 2/18/19
2/18/19 1300 53.8 35 27.0 11.0 NW | 322 21.2 0.00 0.00 33.6 55.0 2/18/19
2/18/19 1200 52.4 37 26.9 11.1 NNW | 329 18.8 0.00 0.00 33.6 53.2 2/18/19
2/18/19 1100 51.0 38 26.0 10.4 NNW | 328 18.8 0.00 0.00 33.6 51.9 2/18/19
2/18/19 1000 49.2 40 25.9 10.2 NNW | 334 19.8 0.00 0.00 33.6 50.2 2/18/19
2/18/19 0900 46.5 43 25.0 5.5 NNW | 334 15.5 0.00 0.00 33.6 48.9 2/18/19
2/18/19 0800 42.2 45 22.5 0.9 SW | 217 3.8 0.00 0.00 33.6 45.3 2/18/19
2/18/19 0700 41.7 44 21.6 2.6 W | 279 8.1 0.00 0.00 33.6 44.0 2/18/19
2/18/19 0600 41.6 47 23.0 3.2 WNW | 292 9.5 0.00 0.00 33.6 44.0 2/18/19
2/18/19 0500 42.4 45 22.6 4.0 W | 274 10.5 0.00 0.00 33.6 44.0 2/18/19
2/18/19 0400 41.4 49 23.8 4.5 WNW | 286 13.2 0.00 0.00 33.6 43.0 2/18/19
2/18/19 0300 41.7 50 24.2 5.4 WNW | 289 12.1 0.00 0.00 33.6 42.6 2/18/19
2/18/19 0200 38.5 62 26.4 3.1 W | 270 8.4 0.00 0.00 33.6 41.8 2/18/19
2/18/19 0100 34.2 85 30.1 0.8 W | 264 4.8 0.00 0.00 33.6 35.2 2/18/19
2/18/19 0000 34.8 91 32.4 1.0 N | 354 4.8 0.00 0.06 34.0 53.4 2/17/19
2/17/19 2300 35.4 90 32.9 1.7 WSW | 257 4.8 0.00 0.06 34.3 53.4 2/17/19
2/17/19 2200 39.0 81 33.6 2.5 NW | 317 4.8 0.00 0.06 37.2 53.4 2/17/19
2/17/19 2100 41.4 76 34.2 4.5 NW | 326 14.8 0.00 0.06 37.2 53.4 2/17/19
2/17/19 2000 38.2 91 35.9 2.5 W | 274 6.1 0.00 0.06 37.2 53.4 2/17/19
2/17/19 1900 40.6 87 37.0 3.9 NNW | 332 7.8 0.00 0.06 39.3 53.4 2/17/19
2/17/19 1800 44.1 78 37.8 2.4 NW | 326 5.8 0.00 0.06 39.3 53.4 2/17/19
2/17/19 1700 47.2 74 39.3 3.4 N | 355 7.8 0.00 0.06 39.3 53.4 2/17/19
2/17/19 1600 48.1 75 40.4 5.8 NE | 38 10.1 0.01 0.06 39.3 53.4 2/17/19
2/17/19 1500 49.5 65 38.2 6.5 E | 86 11.8 0.02 0.05 39.3 53.4 2/17/19
2/17/19 1400 50.3 61 37.2 6.9 E | 88 12.1 0.00 0.03 39.3 53.4 2/17/19
2/17/19 1300 52.0 54 35.6 4.5 NE | 34 11.8 0.00 0.03 39.3 53.4 2/17/19
2/17/19 1200 51.1 53 34.7 2.6 NW | 323 8.1 0.00 0.03 39.3 52.9 2/17/19
2/17/19 1100 48.7 64 36.9 2.0 W | 259 7.8 0.00 0.03 39.3 50.2 2/17/19
2/17/19 1000 45.8 71 37.0 2.3 SSW | 209 5.8 0.00 0.03 39.3 47.4 2/17/19
2/17/19 0900 43.6 76 36.4 4.3 NW | 306 9.1 0.00 0.03 39.3 44.7 2/17/19
2/17/19 0800 40.4 85 36.2 2.8 NW | 308 7.1 0.00 0.03 39.3 43.4 2/17/19
2/17/19 0700 40.3 88 37.1 4.6 WSW | 252 8.1 0.00 0.03 39.6 43.4 2/17/19
2/17/19 0600 41.2 91 38.8 3.7 ESE | 119 8.4 0.00 0.03 40.0 43.4 2/17/19
2/17/19 0500 40.6 90 37.8 1.4 S | 169 5.4 0.00 0.03 40.0 43.4 2/17/19
2/17/19 0400 41.2 88 37.7 3.4 ESE | 118 12.1 0.03 0.03 40.0 43.4 2/17/19
2/17/19 0300 42.4 79 36.3 4.6 SW | 218 10.1 0.00 0.00 41.3 43.4 2/17/19
2/17/19 0200 42.7 74 35.1 5.4 W | 265 11.5 0.00 0.00 41.3 43.4 2/17/19
2/17/19 0100 42.0 75 34.8 7.2 W | 264 12.5 0.00 0.00 41.3 43.4 2/17/19
2/17/19 0000 42.3 73 34.2 6.0 NW | 314 13.8 0.00 0.05 39.4 54.5 2/16/19
2/16/19 2300 42.6 73 34.7 6.3 WNW | 290 13.8 0.00 0.05 39.4 54.5 2/16/19
2/16/19 2200 43.5 72 35.2 10.7 WNW | 292 20.2 0.00 0.05 39.4 54.5 2/16/19
2/16/19 2100 44.4 72 35.7 6.7 NW | 312 20.5 0.00 0.05 39.4 54.5 2/16/19
2/16/19 2000 45.4 71 36.5 8.6 W | 280 17.5 0.00 0.05 39.4 54.5 2/16/19
2/16/19 1900 46.1 69 36.5 5.2 WNW | 289 12.8 0.00 0.05 39.4 54.5 2/16/19
2/16/19 1800 48.8 63 36.8 7.7 W | 266 17.8 0.00 0.05 39.4 54.5 2/16/19
2/16/19 1700 51.2 64 39.6 7.3 W | 260 13.2 0.00 0.05 39.4 54.5 2/16/19
2/16/19 1600 49.4 72 40.7 8.2 WSW | 244 16.8 0.00 0.05 39.4 54.5 2/16/19
2/16/19 1500 48.5 77 41.5 9.1 W | 260 22.5 0.02 0.05 39.4 54.5 2/16/19
2/16/19 1400 50.7 73 42.2 8.6 W | 262 19.5 0.00 0.03 39.4 54.5 2/16/19
2/16/19 1300 53.0 59 39.2 12.3 W | 260 24.9 0.00 0.03 39.4 54.5 2/16/19
2/16/19 1200 52.1 61 39.1 12.2 W | 259 22.9 0.00 0.03 39.4 53.2 2/16/19
2/16/19 1100 49.8 68 39.7 7.9 WNW | 289 15.8 0.00 0.03 39.4 51.3 2/16/19
2/16/19 1000 47.9 73 39.8 4.2 WSW | 252 11.1 0.00 0.03 39.4 48.8 2/16/19
2/16/19 0900 46.1 81 40.6 7.7 S | 184 14.8 0.00 0.03 39.4 47.8 2/16/19
2/16/19 0800 42.8 90 39.9 7.9 SSW | 192 13.5 0.00 0.03 39.4 44.4 2/16/19
2/16/19 0700 42.6 89 39.7 7.9 SSW | 200 12.5 0.00 0.03 39.4 44.4 2/16/19
2/16/19 0600 43.3 90 40.5 6.9 SW | 221 13.5 0.00 0.03 39.4 44.4 2/16/19
2/16/19 0500 43.9 92 41.6 7.6 SW | 214 16.8 0.01 0.03 39.4 44.4 2/16/19
2/16/19 0400 40.6 99 40.2 2.1 W | 280 5.4 0.00 0.02 39.4 43.1 2/16/19
2/16/19 0300 40.7 98 40.2 0.8 W | 277 3.4 0.00 0.02 40.0 42.7 2/16/19
2/16/19 0200 41.9 97 41.2 1.5 W | 281 4.4 0.00 0.02 40.9 42.7 2/16/19
2/16/19 0100 42.5 97 41.7 1.2 NNW | 330 5.1 0.02 0.02 42.2 42.7 2/16/19
2/16/19 0000 42.1 97 41.2 1.4 NE | 51 5.8 0.02 0.19 40.2 51.9 2/15/19
2/15/19 2300 40.9 96 39.9 3.0 NW | 320 8.1 0.01 0.17 40.2 51.9 2/15/19
2/15/19 2200 40.7 93 38.9 1.8 WNW | 293 4.8 0.00 0.16 40.2 51.9 2/15/19
2/15/19 2100 41.8 90 39.1 2.4 SW | 228 6.1 0.00 0.16 40.9 51.9 2/15/19
2/15/19 2000 43.1 85 38.8 2.7 WSW | 239 7.4 0.00 0.16 41.8 51.9 2/15/19
2/15/19 1900 45.3 80 39.5 5.9 SW | 226 11.5 0.00 0.16 41.8 51.9 2/15/19
2/15/19 1800 47.2 78 40.5 6.0 WSW | 240 13.8 0.00 0.16 41.8 51.9 2/15/19
2/15/19 1700 47.6 73 39.4 6.7 SSW | 202 12.1 0.00 0.16 41.8 51.9 2/15/19
2/15/19 1600 47.2 72 38.6 11.2 SW | 222 28.9 0.00 0.16 41.8 51.9 2/15/19
2/15/19 1500 49.5 71 40.4 10.7 SW | 223 18.8 0.01 0.16 41.8 51.9 2/15/19
2/15/19 1400 50.0 69 40.2 7.1 WSW | 243 14.5 0.00 0.15 41.8 51.9 2/15/19
2/15/19 1300 46.8 79 40.5 6.2 SW | 236 23.5 0.01 0.15 41.8 50.0 2/15/19
2/15/19 1200 46.4 81 40.9 7.8 W | 266 23.2 0.03 0.14 41.8 50.0 2/15/19
2/15/19 1100 44.8 84 40.2 9.1 SW | 225 19.5 0.06 0.11 41.8 50.0 2/15/19
2/15/19 1000 48.1 74 40.1 6.7 S | 191 19.5 0.01 0.05 41.8 50.0 2/15/19
2/15/19 0900 46.7 71 37.7 8.0 SSW | 204 18.2 0.00 0.04 41.8 47.9 2/15/19
2/15/19 0800 43.6 82 38.4 3.4 S | 187 15.5 0.00 0.04 41.8 47.4 2/15/19
2/15/19 0700 43.4 82 38.4 3.4 SW | 218 7.4 0.00 0.04 41.8 47.4 2/15/19
2/15/19 0600 45.8 79 39.6 6.6 WSW | 238 14.8 0.00 0.04 44.5 47.4 2/15/19
2/15/19 0500 45.8 79 39.8 10.4 SSW | 211 16.8 0.00 0.04 45.0 47.4 2/15/19
2/15/19 0400 45.6 79 39.6 12.6 WSW | 237 22.2 0.01 0.04 45.0 47.4 2/15/19
2/15/19 0300 46.1 80 40.4 10.6 WSW | 245 26.6 0.00 0.03 45.1 47.4 2/15/19
2/15/19 0200 46.6 80 40.8 10.7 SW | 225 27.6 0.01 0.03 45.9 47.4 2/15/19
2/15/19 0100 46.8 86 42.9 9.5 SW | 225 18.8 0.02 0.02 46.2 47.4 2/15/19
2/15/19 0000 47.5 87 43.8 11.2 WSW | 241 23.5 0.01 0.85 46.9 60.4 2/14/19
2/14/19 2300 47.9 94 46.1 9.0 SSW | 210 14.2 0.05 0.84 47.8 60.4 2/14/19
2/14/19 2200 49.9 82 44.5 13.4 SSW | 201 26.9 0.13 0.79 47.8 60.4 2/14/19
2/14/19 2100 50.4 75 42.6 9.0 S | 187 20.5 0.00 0.66 47.8 60.4 2/14/19
2/14/19 2000 48.6 79 42.3 6.3 S | 179 11.8 0.00 0.66 47.8 60.4 2/14/19
2/14/19 1900 49.9 76 42.6 9.9 SSW | 212 24.6 0.01 0.66 48.5 60.4 2/14/19
2/14/19 1800 51.7 73 43.4 8.6 SSW | 203 16.2 0.00 0.65 50.6 60.4 2/14/19
2/14/19 1700 53.1 72 44.2 11.0 SW | 224 20.9 0.00 0.65 50.6 60.4 2/14/19
2/14/19 1600 53.7 76 46.4 12.9 SW | 221 23.9 0.00 0.65 50.6 60.4 2/14/19
2/14/19 1500 54.8 74 46.6 13.7 WSW | 237 24.9 0.00 0.65 50.6 60.4 2/14/19
2/14/19 1400 53.5 83 48.5 13.4 SW | 221 27.6 0.01 0.65 50.6 60.4 2/14/19
2/14/19 1300 52.2 86 48.2 7.1 SW | 225 22.5 0.00 0.64 50.6 60.4 2/14/19
2/14/19 1200 50.8 88 47.3 10.0 WSW | 240 19.2 0.06 0.64 50.6 60.4 2/14/19
2/14/19 1100 52.3 90 49.4 12.6 SW | 233 19.8 0.04 0.58 51.8 60.4 2/14/19
2/14/19 1000 53.4 87 49.7 15.9 SW | 217 25.6 0.06 0.54 52.1 60.4 2/14/19
2/14/19 0900 54.0 87 50.4 18.4 SW | 219 27.2 0.00 0.48 53.4 60.4 2/14/19
2/14/19 0800 54.3 89 51.0 15.0 SW | 229 24.2 0.00 0.48 54.0 60.4 2/14/19
2/14/19 0700 55.9 90 53.0 13.7 WSW | 237 25.9 0.02 0.48 54.5 60.4 2/14/19
2/14/19 0600 59.7 93 57.8 13.4 S | 185 26.2 0.01 0.46 55.2 60.4 2/14/19
2/14/19 0500 59.1 96 58.0 8.6 SSE | 153 13.8 0.02 0.45 55.2 59.8 2/14/19
2/14/19 0400 58.9 96 57.8 10.0 SSE | 150 22.2 0.02 0.43 55.2 59.8 2/14/19
2/14/19 0300 56.2 99 56.0 3.9 NNE | 28 12.1 0.07 0.41 55.2 57.8 2/14/19
2/14/19 0200 55.5 99 55.3 3.0 NNE | 13 7.1 0.26 0.34 55.2 56.0 2/14/19
2/14/19 0100 55.5 99 55.2 2.4 W | 265 6.1 0.08 0.08 55.2 55.9 2/14/19
2/14/19 0000 54.9 99 54.8 4.0 ESE | 116 11.8 0.09 2.44 43.5 55.9 2/13/19
2/13/19 2300 53.0 99 52.8 1.7 NNW | 332 4.4 0.02 2.35 43.5 53.6 2/13/19
2/13/19 2200 52.3 99 52.1 1.9 NW | 308 5.1 0.03 2.33 43.5 52.7 2/13/19
2/13/19 2100 51.7 100 51.6 1.8 NNW | 343 7.1 0.11 2.30 43.5 52.1 2/13/19
2/13/19 2000 51.0 100 50.9 2.2 S | 190 6.1 0.24 2.19 43.5 51.5 2/13/19
2/13/19 1900 51.2 99 51.1 1.3 NE | 54 4.1 0.08 1.95 43.5 51.5 2/13/19
2/13/19 1800 51.1 99 50.9 2.2 NW | 318 4.1 0.02 1.87 43.5 51.2 2/13/19
2/13/19 1700 51.1 99 50.9 3.2 NNW | 327 6.1 0.02 1.85 43.5 51.2 2/13/19
2/13/19 1600 51.0 98 50.6 2.7 NNW | 334 6.8 0.09 1.83 43.5 51.2 2/13/19
2/13/19 1500 50.4 98 50.0 4.2 NNE | 28 8.1 0.09 1.74 43.5 50.6 2/13/19
2/13/19 1400 49.4 97 48.6 3.1 NE | 42 7.8 0.09 1.65 43.5 49.9 2/13/19
2/13/19 1300 48.0 95 46.6 3.9 NE | 42 9.1 0.04 1.56 43.5 48.6 2/13/19
2/13/19 1200 47.6 94 45.9 5.3 ENE | 70 14.8 0.14 1.52 43.5 47.8 2/13/19
2/13/19 1100 47.4 92 45.4 11.0 E | 88 19.8 0.07 1.38 43.5 47.8 2/13/19
2/13/19 1000 46.4 95 45.1 8.8 E | 85 18.8 0.18 1.31 43.5 47.0 2/13/19
2/13/19 0900 45.4 95 44.2 9.2 ENE | 66 19.2 0.29 1.13 43.5 46.5 2/13/19
2/13/19 0800 46.2 90 43.3 7.8 NE | 50 15.5 0.23 0.84 43.5 46.5 2/13/19
2/13/19 0700 46.0 91 43.6 6.9 NNE | 24 14.8 0.16 0.61 43.5 46.4 2/13/19
2/13/19 0600 45.5 95 44.1 8.7 NNW | 339 17.8 0.24 0.45 43.5 46.2 2/13/19
2/13/19 0500 45.5 92 43.4 4.3 NNW | 340 8.4 0.07 0.21 43.5 46.2 2/13/19
2/13/19 0400 44.7 94 43.1 3.1 NNW | 330 5.8 0.04 0.14 43.5 45.0 2/13/19
2/13/19 0300 44.5 94 42.7 3.3 N | 353 7.1 0.03 0.10 43.5 45.0 2/13/19
2/13/19 0200 44.0 94 42.4 3.4 NNE | 23 7.8 0.06 0.07 43.5 44.2 2/13/19
2/13/19 0100 43.7 93 41.9 2.0 NE | 53 5.8 0.01 0.01 43.5 43.8 2/13/19
2/13/19 0000 43.1 93 41.2 1.6 NNE | 19 4.8 0.10 0.25 34.8 45.9 2/12/19
2/12/19 2300 43.3 88 39.8 2.1 NE | 38 6.8 0.08 0.15 34.8 45.9 2/12/19
2/12/19 2200 44.6 76 37.3 3.2 ENE | 65 9.1 0.07 0.07 34.8 45.9 2/12/19
2/12/19 2100 44.5 76 37.3 4.0 ESE | 106 9.5 0.00 0.00 34.8 45.9 2/12/19
2/12/19 2000 43.4 82 38.3 2.8 ENE | 59 9.5 0.00 0.00 34.8 45.9 2/12/19
2/12/19 1900 43.0 84 38.5 1.3 NW | 322 4.8 0.00 0.00 34.8 45.9 2/12/19
2/12/19 1800 44.8 74 36.9 1.4 NNW | 344 5.8 0.00 0.00 34.8 45.9 2/12/19
2/12/19 1700 45.5 70 36.2 2.1 E | 91 8.8 0.00 0.00 34.8 45.9 2/12/19
2/12/19 1600 45.1 71 36.1 6.1 NE | 50 14.8 0.00 0.00 34.8 45.2 2/12/19
2/12/19 1500 44.7 72 36.2 4.5 NE | 48 13.8 0.00 0.00 34.8 45.2 2/12/19
2/12/19 1400 44.3 72 35.7 4.8 ENE | 63 12.5 0.00 0.00 34.8 44.6 2/12/19
Tip: Bookmark this page for easy future reference